Time;durP1;ratioP1;P1;durP2;ratioP2;P2;SDS_P1;SDS_P2;PMS_P1;PMS_P2;Temp;Humidity;BMP_temperature;BMP_pressure;BME280_temperature;BME280_humidity;BME280_pressure;Samples;Min_cycle;Max_cycle;Signal;HPM_P1;HPM_P2
2024/01/18 00:00:18;;;;;;;18.23;11.40;;;3.80;67.50;;;;;;5093133;28;20028;-70
2024/01/18 00:02:44;;;;;;;19.17;11.10;;;3.80;67.60;;;;;;5094764;28;20028;-70
2024/01/18 00:05:10;;;;;;;18.70;11.63;;;3.70;67.60;;;;;;5093997;28;20356;-70
2024/01/18 00:07:36;;;;;;;20.83;11.80;;;3.70;67.60;;;;;;5102872;28;20059;-70
2024/01/18 00:10:01;;;;;;;24.60;12.73;;;3.70;67.70;;;;;;5094139;28;20028;-70
2024/01/18 00:12:27;;;;;;;19.20;11.33;;;3.70;67.80;;;;;;5076405;28;20542;-69
2024/01/18 00:14:53;;;;;;;19.03;12.40;;;3.70;67.80;;;;;;5093272;28;20020;-70
2024/01/18 00:17:19;;;;;;;18.47;12.43;;;3.70;67.90;;;;;;5093445;28;20090;-70
2024/01/18 00:19:44;;;;;;;17.93;12.83;;;3.70;67.90;;;;;;5092405;28;20024;-70
2024/01/18 00:22:10;;;;;;;24.60;11.53;;;3.60;67.90;;;;;;5090884;28;20027;-70
2024/01/18 00:24:36;;;;;;;18.83;12.80;;;3.60;68.00;;;;;;5103327;28;20027;-70
2024/01/18 00:27:01;;;;;;;19.23;11.47;;;3.60;68.10;;;;;;5094300;28;20024;-70
2024/01/18 00:29:27;;;;;;;17.23;11.73;;;3.60;68.10;;;;;;5092960;28;20081;-70
2024/01/18 00:31:53;;;;;;;19.17;11.80;;;3.60;68.10;;;;;;5093221;28;20365;-70
2024/01/18 00:34:19;;;;;;;20.37;12.00;;;3.60;68.10;;;;;;5094518;28;21287;-69
2024/01/18 00:36:46;;;;;;;18.60;11.83;;;3.60;68.10;;;;;;5107375;28;20059;-70
2024/01/18 00:39:16;;;;;;;21.33;13.23;;;3.60;68.80;;;;;;5093824;28;20020;-69
2024/01/18 00:41:42;;;;;;;21.47;12.50;;;3.60;68.20;;;;;;5092163;28;20075;-69
2024/01/18 00:44:08;;;;;;;17.77;11.83;;;3.60;68.20;;;;;;5093503;28;20020;-69
2024/01/18 00:46:34;;;;;;;18.93;12.03;;;3.60;68.30;;;;;;5078221;28;20029;-70
2024/01/18 00:49:00;;;;;;;22.03;13.47;;;3.60;68.30;;;;;;5107558;28;20032;-70
2024/01/18 00:51:26;;;;;;;19.07;12.30;;;3.60;68.40;;;;;;5093613;28;20047;-70
2024/01/18 00:53:52;;;;;;;18.40;11.63;;;3.60;68.50;;;;;;5092455;28;20047;-70
2024/01/18 00:56:18;;;;;;;20.77;13.07;;;3.60;68.50;;;;;;5105285;28;20028;-70
2024/01/18 00:58:44;;;;;;;21.20;13.33;;;3.50;68.50;;;;;;5084849;28;20024;-69
2024/01/18 01:01:10;;;;;;;22.13;13.03;;;3.50;68.60;;;;;;5093090;28;20032;-70
2024/01/18 01:03:37;;;;;;;20.07;12.57;;;3.50;68.70;;;;;;5093254;28;20039;-70
2024/01/18 01:06:03;;;;;;;18.73;12.30;;;3.50;68.70;;;;;;5090314;28;20056;-70
2024/01/18 01:08:29;;;;;;;19.17;12.33;;;3.50;68.80;;;;;;5093414;28;20036;-70
2024/01/18 01:10:55;;;;;;;21.20;12.93;;;3.50;68.80;;;;;;5092710;28;20391;-69
2024/01/18 01:13:21;;;;;;;21.00;13.40;;;3.50;68.90;;;;;;5110104;28;20024;-69
2024/01/18 01:15:48;;;;;;;18.93;12.03;;;3.40;68.90;;;;;;5082894;28;20028;-70
2024/01/18 01:18:13;;;;;;;19.50;12.77;;;3.50;69.00;;;;;;5093604;28;20032;-69
2024/01/18 01:20:39;;;;;;;19.43;11.50;;;3.50;69.00;;;;;;5090614;28;20448;-70
2024/01/18 01:23:05;;;;;;;17.77;12.37;;;3.40;69.10;;;;;;5091079;28;20352;-69
2024/01/18 01:25:31;;;;;;;19.53;12.77;;;3.40;69.10;;;;;;5093489;28;20039;-70
2024/01/18 01:27:56;;;;;;;21.17;13.20;;;3.40;69.20;;;;;;5094550;28;20039;-70
2024/01/18 01:30:22;;;;;;;20.47;12.40;;;3.40;69.20;;;;;;5094178;28;20024;-70
2024/01/18 01:32:48;;;;;;;20.57;12.97;;;3.40;69.20;;;;;;5093832;28;20025;-69
2024/01/18 01:35:14;;;;;;;19.00;13.77;;;3.40;69.30;;;;;;5092014;28;20453;-70
2024/01/18 01:37:40;;;;;;;18.20;12.43;;;3.40;69.30;;;;;;5093414;28;20471;-70
2024/01/18 01:40:06;;;;;;;17.83;12.23;;;3.40;69.30;;;;;;5076130;28;20028;-69
2024/01/18 01:42:32;;;;;;;19.40;13.00;;;3.40;69.40;;;;;;5093243;28;20038;-69
2024/01/18 01:44:57;;;;;;;20.53;12.93;;;3.40;69.40;;;;;;5092850;28;20020;-69
2024/01/18 01:47:23;;;;;;;18.77;12.77;;;3.40;69.50;;;;;;5077389;28;20036;-69
2024/01/18 01:49:50;;;;;;;20.63;12.73;;;3.40;69.50;;;;;;5092983;28;20024;-69
2024/01/18 01:52:17;;;;;;;20.60;12.30;;;3.40;69.60;;;;;;5094123;28;20368;-69
2024/01/18 01:54:46;;;;;;;19.60;13.17;;;3.40;69.60;;;;;;5092703;28;20066;-70
2024/01/18 01:57:13;;;;;;;20.03;13.70;;;3.30;69.60;;;;;;5086460;28;20032;-70
2024/01/18 01:59:42;;;;;;;19.63;12.70;;;3.30;69.70;;;;;;5092299;28;20111;-69
2024/01/18 02:02:08;;;;;;;16.90;12.53;;;3.30;69.70;;;;;;5095751;28;20115;-69
2024/01/18 02:04:35;;;;;;;21.53;14.60;;;3.30;69.70;;;;;;5092725;28;20474;-69
2024/01/18 02:07:01;;;;;;;21.33;13.80;;;3.30;69.80;;;;;;5106899;28;20032;-69
2024/01/18 02:09:28;;;;;;;21.67;14.47;;;3.30;69.80;;;;;;5091665;28;20072;-70
2024/01/18 02:11:53;;;;;;;20.80;12.93;;;3.30;69.90;;;;;;5093148;28;20361;-69
2024/01/18 02:14:19;;;;;;;20.67;13.90;;;3.30;69.90;;;;;;5092521;28;20028;-69
2024/01/18 02:16:45;;;;;;;20.17;14.43;;;3.30;70.00;;;;;;5093714;28;20082;-69
2024/01/18 02:19:11;;;;;;;22.53;14.17;;;3.30;70.00;;;;;;5103691;28;20032;-70
2024/01/18 02:21:37;;;;;;;21.10;14.13;;;3.20;70.00;;;;;;5093627;28;20047;-69
2024/01/18 02:24:33;;;;;;;22.03;14.53;;;3.30;70.00;;;;;;5093527;28;20035;-69
2024/01/18 02:26:59;;;;;;;21.53;14.37;;;3.30;70.00;;;;;;5093067;28;20485;-69
2024/01/18 02:29:25;;;;;;;22.77;13.47;;;3.20;70.00;;;;;;5091778;28;20077;-69
2024/01/18 02:31:51;;;;;;;21.47;13.53;;;3.20;70.00;;;;;;5093503;28;20040;-70
2024/01/18 02:34:18;;;;;;;22.10;13.97;;;3.20;70.00;;;;;;5093515;28;20061;-70
2024/01/18 02:36:47;;;;;;;22.63;13.43;;;3.20;70.10;;;;;;5094276;28;20073;-70
2024/01/18 02:39:12;;;;;;;22.17;14.33;;;3.20;70.10;;;;;;5105520;28;20349;-69
2024/01/18 02:41:39;;;;;;;20.53;12.40;;;3.30;70.20;;;;;;5096317;28;20058;-69
2024/01/18 02:44:05;;;;;;;20.93;13.00;;;3.20;70.10;;;;;;5086671;28;20025;-70
2024/01/18 02:46:32;;;;;;;20.33;11.70;;;3.20;70.10;;;;;;5097306;28;20093;-70
2024/01/18 02:48:58;;;;;;;21.00;12.50;;;3.20;70.10;;;;;;5096760;28;20086;-69
2024/01/18 02:51:24;;;;;;;21.43;13.10;;;3.20;70.20;;;;;;5096158;28;20032;-69
2024/01/18 02:53:50;;;;;;;18.50;12.83;;;3.20;70.10;;;;;;5094118;28;20047;-69
2024/01/18 02:56:16;;;;;;;19.10;12.33;;;3.20;70.10;;;;;;5109280;28;20024;-69
2024/01/18 02:58:41;;;;;;;20.53;13.10;;;3.20;70.20;;;;;;5092807;28;20025;-69
2024/01/18 03:01:09;;;;;;;19.00;11.83;;;3.20;70.20;;;;;;5096616;28;20024;-70
2024/01/18 03:03:35;;;;;;;21.70;13.23;;;3.20;70.10;;;;;;5096525;28;20142;-69
2024/01/18 03:06:01;;;;;;;24.60;13.17;;;3.20;70.10;;;;;;5095165;28;20364;-69
2024/01/18 03:08:27;;;;;;;20.03;12.70;;;3.20;70.10;;;;;;5096702;28;20036;-70
2024/01/18 03:10:53;;;;;;;19.90;12.30;;;3.20;70.10;;;;;;5100581;28;20032;-69
2024/01/18 03:13:18;;;;;;;19.50;11.03;;;3.20;70.20;;;;;;5095149;28;20038;-69
2024/01/18 03:15:44;;;;;;;16.77;10.83;;;3.20;70.20;;;;;;5095517;28;20152;-69
2024/01/18 03:18:10;;;;;;;16.23;10.77;;;3.10;70.20;;;;;;5108986;28;20078;-69
2024/01/18 03:20:36;;;;;;;18.13;10.43;;;3.10;70.20;;;;;;5096258;28;20115;-69
2024/01/18 03:23:01;;;;;;;17.23;10.03;;;3.10;70.30;;;;;;5075526;28;20441;-69
2024/01/18 03:25:27;;;;;;;15.87;9.73;;;3.10;70.30;;;;;;5095189;28;20085;-69
2024/01/18 03:27:53;;;;;;;17.47;10.23;;;3.10;70.30;;;;;;5096497;28;20024;-69
2024/01/18 03:30:19;;;;;;;16.23;9.80;;;3.00;70.30;;;;;;5094782;28;20092;-69
2024/01/18 03:32:46;;;;;;;17.70;9.30;;;3.00;70.30;;;;;;5096621;28;20043;-69
2024/01/18 03:35:12;;;;;;;19.87;9.83;;;3.10;70.40;;;;;;5094561;28;20028;-69
2024/01/18 03:37:38;;;;;;;14.33;9.00;;;3.00;70.30;;;;;;5095157;28;20048;-69
2024/01/18 03:40:04;;;;;;;16.90;9.33;;;3.00;70.30;;;;;;5095636;28;20032;-69
2024/01/18 03:42:30;;;;;;;16.37;9.10;;;3.00;70.20;;;;;;5096358;28;20330;-69
2024/01/18 03:44:56;;;;;;;14.87;9.40;;;3.00;70.10;;;;;;5094883;28;20038;-69
2024/01/18 03:47:21;;;;;;;14.90;9.13;;;3.00;70.10;;;;;;5105048;28;20024;-69
2024/01/18 03:49:47;;;;;;;13.90;8.57;;;3.00;70.10;;;;;;5094334;28;20043;-69
2024/01/18 03:52:13;;;;;;;16.30;9.40;;;3.00;70.20;;;;;;5092109;28;20031;-69
2024/01/18 03:54:42;;;;;;;14.20;8.83;;;3.00;70.20;;;;;;5091801;28;20391;-69
2024/01/18 03:57:07;;;;;;;15.13;9.03;;;3.00;70.20;;;;;;5092655;28;20448;-70
2024/01/18 03:59:33;;;;;;;13.97;8.33;;;3.00;70.20;;;;;;5076297;28;20081;-69
2024/01/18 04:01:59;;;;;;;16.80;8.83;;;2.90;70.20;;;;;;5087441;28;20445;-69
2024/01/18 04:04:24;;;;;;;13.90;7.60;;;2.90;70.20;;;;;;5079279;28;20349;-69
2024/01/18 04:06:50;;;;;;;13.40;7.27;;;2.90;70.20;;;;;;5084950;28;20023;-69
2024/01/18 04:09:16;;;;;;;12.43;7.20;;;3.00;70.20;;;;;;5081238;28;20519;-69
2024/01/18 04:11:42;;;;;;;12.00;7.20;;;2.90;70.10;;;;;;5083129;28;20059;-69
2024/01/18 04:14:08;;;;;;;14.43;7.27;;;2.90;70.10;;;;;;5099324;28;20036;-69
2024/01/18 04:16:34;;;;;;;12.07;6.63;;;2.90;70.10;;;;;;5094090;28;20036;-69
2024/01/18 04:19:00;;;;;;;11.13;6.60;;;2.90;70.00;;;;;;5093483;28;20402;-69
2024/01/18 04:21:26;;;;;;;11.27;5.83;;;2.90;70.00;;;;;;5094267;28;20089;-69
2024/01/18 04:23:52;;;;;;;11.60;6.17;;;2.90;69.90;;;;;;5073110;28;20074;-69
2024/01/18 04:26:18;;;;;;;12.43;5.83;;;2.90;69.90;;;;;;5080578;28;20021;-69
2024/01/18 04:28:43;;;;;;;12.00;6.17;;;2.90;69.90;;;;;;5092500;28;20024;-69
2024/01/18 04:31:09;;;;;;;11.37;6.10;;;2.90;69.90;;;;;;5079517;28;20028;-69
2024/01/18 04:33:35;;;;;;;12.70;6.07;;;2.90;70.60;;;;;;5084103;28;20097;-69
2024/01/18 04:36:00;;;;;;;11.93;5.80;;;2.90;69.90;;;;;;5062865;28;20085;-69
2024/01/18 04:38:26;;;;;;;11.83;5.70;;;2.90;69.90;;;;;;5080619;28;20073;-69
2024/01/18 04:40:52;;;;;;;14.33;6.47;;;2.90;70.00;;;;;;5088117;28;20024;-69
2024/01/18 04:43:18;;;;;;;12.60;5.97;;;2.80;69.90;;;;;;5085016;28;20444;-69
2024/01/18 04:45:44;;;;;;;13.93;6.23;;;2.80;70.00;;;;;;5073728;28;20397;-69
2024/01/18 04:48:10;;;;;;;10.93;5.80;;;2.80;70.00;;;;;;5076317;28;20467;-69
2024/01/18 04:50:36;;;;;;;10.90;5.87;;;2.80;70.00;;;;;;5080025;28;20032;-69
2024/01/18 04:53:02;;;;;;;13.70;6.97;;;2.80;70.00;;;;;;5061764;28;20028;-69
2024/01/18 04:55:28;;;;;;;14.37;6.63;;;2.80;70.00;;;;;;5092437;28;20047;-69
2024/01/18 04:57:53;;;;;;;11.77;6.60;;;2.80;70.10;;;;;;5079458;28;20499;-69
2024/01/18 05:00:19;;;;;;;11.27;6.30;;;2.70;70.00;;;;;;5075887;28;20056;-69
2024/01/18 05:02:45;;;;;;;9.93;5.93;;;2.70;70.10;;;;;;5081124;28;20024;-69
2024/01/18 05:05:11;;;;;;;13.53;6.57;;;2.70;70.10;;;;;;5082939;28;20017;-69
2024/01/18 05:07:44;;;;;;;10.17;5.67;;;2.70;70.10;;;;;;5082479;28;20085;-70
2024/01/18 05:10:10;;;;;;;11.93;6.83;;;2.70;70.20;;;;;;5082165;28;20020;-69
2024/01/18 05:12:37;;;;;;;12.57;7.07;;;2.60;70.10;;;;;;5077970;28;20402;-69
2024/01/18 05:15:04;;;;;;;13.67;7.43;;;2.60;70.10;;;;;;5073434;28;20334;-69
2024/01/18 05:17:37;;;;;;;13.50;7.00;;;2.60;70.20;;;;;;5076729;28;20020;-69
2024/01/18 05:20:07;;;;;;;14.90;8.27;;;2.60;70.20;;;;;;5078585;28;20468;-69
2024/01/18 05:22:33;;;;;;;15.10;7.97;;;2.60;70.20;;;;;;5076721;28;20365;-69
2024/01/18 05:25:00;;;;;;;14.83;8.50;;;2.50;70.20;;;;;;5092800;28;20033;-69
2024/01/18 05:27:30;;;;;;;15.57;7.93;;;2.50;70.20;;;;;;5078643;28;20141;-69
2024/01/18 05:29:56;;;;;;;13.37;7.90;;;2.50;70.20;;;;;;5079002;28;20138;-69
2024/01/18 05:32:22;;;;;;;13.63;8.43;;;2.50;70.30;;;;;;5082656;28;20406;-69
2024/01/18 05:34:49;;;;;;;13.93;8.20;;;2.40;70.20;;;;;;5090261;28;20121;-69
2024/01/18 05:37:15;;;;;;;13.87;8.07;;;2.40;70.20;;;;;;5088873;28;20078;-70
2024/01/18 05:39:41;;;;;;;15.43;7.40;;;2.40;70.30;;;;;;5076228;28;20032;-69
2024/01/18 05:42:07;;;;;;;15.30;8.00;;;2.40;70.30;;;;;;5076080;28;20044;-69
2024/01/18 05:44:34;;;;;;;11.53;7.73;;;2.40;70.30;;;;;;5058916;28;20100;-69
2024/01/18 05:46:59;;;;;;;16.00;8.20;;;2.40;70.40;;;;;;5076946;28;20017;-69
2024/01/18 05:49:25;;;;;;;16.60;8.33;;;2.40;70.40;;;;;;5082657;28;20031;-69
2024/01/18 05:51:51;;;;;;;14.87;8.17;;;2.40;70.40;;;;;;5077592;28;20032;-69
2024/01/18 05:54:17;;;;;;;13.70;7.70;;;2.30;71.00;;;;;;5090449;28;20036;-69
2024/01/18 05:56:46;;;;;;;13.23;7.20;;;2.30;70.40;;;;;;5093285;28;20085;-69
2024/01/18 05:59:11;;;;;;;10.97;6.43;;;2.30;70.40;;;;;;5092929;28;20042;-69
2024/01/18 06:01:37;;;;;;;13.27;7.47;;;2.30;70.40;;;;;;5093240;28;20036;-69
2024/01/18 06:04:03;;;;;;;13.13;6.77;;;2.30;70.40;;;;;;5092502;28;20023;-69
2024/01/18 06:06:31;;;;;;;11.57;6.23;;;2.30;70.40;;;;;;5090486;28;20421;-69
2024/01/18 06:08:57;;;;;;;15.00;7.43;;;2.30;70.40;;;;;;5087202;28;20043;-69
2024/01/18 06:11:22;;;;;;;11.37;6.60;;;2.30;70.40;;;;;;5092154;28;20028;-69
2024/01/18 06:13:48;;;;;;;10.50;6.07;;;2.30;70.50;;;;;;5105783;28;20100;-69
2024/01/18 06:16:15;;;;;;;12.90;6.77;;;2.20;70.50;;;;;;5095824;28;20067;-69
2024/01/18 06:18:45;;;;;;;11.70;6.03;;;2.30;70.50;;;;;;5095810;28;20031;-69
2024/01/18 06:21:11;;;;;;;12.47;6.57;;;2.30;70.60;;;;;;5094767;28;20020;-69
2024/01/18 06:23:37;;;;;;;11.77;6.43;;;2.30;70.60;;;;;;5096097;28;20035;-69
2024/01/18 06:26:07;;;;;;;10.33;6.27;;;2.30;70.60;;;;;;5096657;28;20027;-69
2024/01/18 06:28:33;;;;;;;11.70;6.40;;;2.30;70.60;;;;;;5096745;28;20032;-69
2024/01/18 06:30:58;;;;;;;14.23;6.63;;;2.30;70.70;;;;;;5096601;28;20046;-69
2024/01/18 06:33:26;;;;;;;11.03;6.03;;;2.30;70.70;;;;;;5096358;28;20108;-69
2024/01/18 06:35:52;;;;;;;11.50;6.03;;;2.20;70.70;;;;;;5094264;28;20031;-69
2024/01/18 06:38:21;;;;;;;10.80;6.13;;;2.30;70.70;;;;;;5095691;28;20044;-69
2024/01/18 06:40:47;;;;;;;12.17;6.10;;;2.30;70.70;;;;;;5095246;28;20043;-69
2024/01/18 06:43:16;;;;;;;13.90;6.57;;;2.20;70.70;;;;;;5096534;28;20085;-70
2024/01/18 06:45:42;;;;;;;11.90;6.93;;;2.20;70.80;;;;;;5095009;28;20023;-69
2024/01/18 06:48:08;;;;;;;12.20;6.40;;;2.20;70.80;;;;;;5095613;28;20047;-69
2024/01/18 06:50:35;;;;;;;13.47;7.23;;;2.20;70.80;;;;;;5083460;28;20076;-68
2024/01/18 06:53:03;;;;;;;13.27;7.90;;;2.20;70.80;;;;;;5078536;28;20397;-69
2024/01/18 06:55:32;;;;;;;15.07;7.80;;;2.20;70.90;;;;;;5095675;28;20100;-69
2024/01/18 06:58:02;;;;;;;12.83;7.03;;;2.10;70.80;;;;;;5100424;28;20050;-68
2024/01/18 07:00:27;;;;;;;13.37;6.83;;;2.20;70.90;;;;;;5096312;28;20036;-69
2024/01/18 07:02:53;;;;;;;13.17;7.00;;;2.10;70.80;;;;;;5093806;28;20035;-69
2024/01/18 07:05:20;;;;;;;13.43;6.67;;;2.10;70.80;;;;;;5094623;28;20020;-69
2024/01/18 07:07:46;;;;;;;12.33;6.27;;;2.10;70.80;;;;;;5094581;28;20027;-68
2024/01/18 07:10:11;;;;;;;10.37;5.33;;;2.10;70.90;;;;;;5095232;28;20020;-69
2024/01/18 07:12:37;;;;;;;12.33;5.70;;;2.10;70.90;;;;;;5094520;28;20034;-69
2024/01/18 07:15:03;;;;;;;13.37;6.17;;;2.10;70.90;;;;;;5095057;28;20024;-69
2024/01/18 07:17:29;;;;;;;10.87;5.93;;;2.10;70.90;;;;;;5094297;28;20421;-69
2024/01/18 07:19:59;;;;;;;15.60;6.53;;;2.10;70.90;;;;;;5094223;28;20119;-69
2024/01/18 07:22:28;;;;;;;13.87;6.63;;;2.10;70.90;;;;;;5094878;28;20028;-69
2024/01/18 07:24:53;;;;;;;12.40;6.07;;;2.10;70.90;;;;;;5094322;28;20038;-69
2024/01/18 07:27:19;;;;;;;10.77;5.30;;;2.10;70.90;;;;;;5077822;28;20115;-69
2024/01/18 07:29:45;;;;;;;11.17;5.87;;;2.10;70.90;;;;;;5103476;28;20031;-68
2024/01/18 07:32:11;;;;;;;11.83;5.00;;;2.10;70.90;;;;;;5092858;28;20445;-70
2024/01/18 07:34:37;;;;;;;12.00;5.50;;;2.00;70.90;;;;;;5095196;28;20024;-69
2024/01/18 07:37:04;;;;;;;13.17;5.97;;;2.10;71.00;;;;;;5077354;28;20052;-70
2024/01/18 07:39:30;;;;;;;11.73;6.20;;;2.10;71.00;;;;;;5100338;28;20338;-67
2024/01/18 07:41:56;;;;;;;11.63;6.20;;;2.10;71.00;;;;;;5077156;28;20035;-68
2024/01/18 07:44:22;;;;;;;11.10;5.70;;;2.10;71.00;;;;;;5094135;28;20028;-69
2024/01/18 07:46:49;;;;;;;13.33;5.73;;;2.10;71.00;;;;;;5077559;28;20016;-68
2024/01/18 07:49:14;;;;;;;13.00;5.30;;;2.10;71.00;;;;;;5093853;28;20380;-69
2024/01/18 07:51:41;;;;;;;15.37;6.07;;;2.10;71.00;;;;;;5090494;28;20032;-70
2024/01/18 07:54:06;;;;;;;11.23;6.03;;;2.10;71.00;;;;;;5088212;28;20353;-69
2024/01/18 07:56:32;;;;;;;11.97;6.27;;;2.10;71.00;;;;;;5088616;28;20156;-68
2024/01/18 07:58:58;;;;;;;9.07;5.00;;;2.10;71.00;;;;;;5077337;28;20043;-70
2024/01/18 08:01:24;;;;;;;10.43;5.37;;;2.10;71.00;;;;;;5090428;28;20024;-67
2024/01/18 08:03:50;;;;;;;11.00;4.97;;;2.10;71.00;;;;;;5105628;28;20073;-69
2024/01/18 08:06:15;;;;;;;12.83;5.67;;;2.10;71.00;;;;;;5093058;28;20028;-71
2024/01/18 08:08:41;;;;;;;12.80;5.03;;;2.10;71.00;;;;;;5101556;27;20036;-71
2024/01/18 08:11:13;;;;;;;10.40;5.53;;;2.20;71.00;;;;;;5072763;28;20032;-70
2024/01/18 08:13:42;;;;;;;10.03;6.00;;;2.20;71.00;;;;;;5103265;27;20039;-69
2024/01/18 08:16:09;;;;;;;10.50;5.20;;;2.20;71.00;;;;;;5093763;28;20479;-70
2024/01/18 08:18:36;;;;;;;11.17;5.33;;;2.20;71.00;;;;;;5093715;28;20035;-69
2024/01/18 08:21:05;;;;;;;10.00;4.80;;;2.20;71.00;;;;;;5090588;28;20095;-70
2024/01/18 08:23:30;;;;;;;10.33;5.23;;;2.20;71.00;;;;;;5086029;28;20361;-71
2024/01/18 08:25:56;;;;;;;13.40;5.87;;;2.30;71.00;;;;;;5074212;28;20024;-70
2024/01/18 08:28:22;;;;;;;10.27;5.27;;;2.30;70.90;;;;;;5093519;28;20032;-70
2024/01/18 08:30:48;;;;;;;9.43;5.03;;;2.30;70.90;;;;;;5090594;28;20368;-70
2024/01/18 08:33:15;;;;;;;11.47;5.27;;;2.30;70.90;;;;;;5093472;28;20024;-70
2024/01/18 08:35:41;;;;;;;13.37;4.83;;;2.40;70.90;;;;;;5091006;28;20039;-70
2024/01/18 08:38:07;;;;;;;12.03;6.00;;;2.50;70.80;;;;;;5086390;28;20047;-70
2024/01/18 08:40:33;;;;;;;9.33;5.40;;;2.60;70.70;;;;;;5094255;28;20375;-70
2024/01/18 08:42:59;;;;;;;11.90;5.93;;;2.60;70.60;;;;;;5093035;28;20043;-70
2024/01/18 08:45:26;;;;;;;9.47;5.43;;;2.70;70.40;;;;;;5083639;28;20039;-70
2024/01/18 08:47:52;;;;;;;12.27;5.57;;;2.80;70.30;;;;;;5092783;28;20052;-70
2024/01/18 08:50:19;;;;;;;9.00;5.00;;;2.90;70.20;;;;;;5085738;28;20020;-70
2024/01/18 08:52:45;;;;;;;12.90;6.20;;;3.00;70.10;;;;;;5090735;28;20012;-69
2024/01/18 08:55:11;;;;;;;11.17;5.20;;;3.10;70.00;;;;;;5092187;28;20050;-69
2024/01/18 08:57:36;;;;;;;12.97;5.90;;;3.20;69.90;;;;;;5089325;28;20035;-67
2024/01/18 09:00:03;;;;;;;10.00;5.33;;;3.20;69.80;;;;;;5089758;28;20028;-70
2024/01/18 09:02:30;;;;;;;11.60;5.40;;;3.30;69.70;;;;;;5092815;28;20028;-70
2024/01/18 09:04:56;;;;;;;10.97;4.73;;;3.40;69.60;;;;;;5089220;28;20119;-70
2024/01/18 09:07:23;;;;;;;8.77;4.37;;;3.50;69.60;;;;;;5087146;28;20189;-71
2024/01/18 09:09:49;;;;;;;9.50;4.67;;;3.60;69.50;;;;;;5093927;28;20057;-71
2024/01/18 09:12:15;;;;;;;13.50;4.30;;;3.60;69.30;;;;;;5094354;28;20364;-70
2024/01/18 09:14:42;;;;;;;9.10;4.67;;;3.80;69.20;;;;;;5093026;28;20313;-69
2024/01/18 09:17:09;;;;;;;11.73;5.00;;;3.90;68.90;;;;;;5095541;28;20553;-70
2024/01/18 09:19:35;;;;;;;10.33;4.43;;;4.10;68.80;;;;;;5094168;28;20457;-70
2024/01/18 09:22:01;;;;;;;11.80;5.00;;;4.20;68.60;;;;;;5079660;28;20024;-69
2024/01/18 09:24:27;;;;;;;10.13;5.33;;;4.30;68.40;;;;;;5091070;28;20044;-69
2024/01/18 09:26:53;;;;;;;9.83;4.67;;;4.40;68.30;;;;;;5092381;28;20016;-69
2024/01/18 09:29:20;;;;;;;10.77;5.70;;;4.50;68.10;;;;;;5088447;28;20064;-66
2024/01/18 09:31:45;;;;;;;11.83;5.37;;;4.60;67.90;;;;;;5091418;28;20023;-65
2024/01/18 09:34:11;;;;;;;10.63;5.50;;;4.60;67.80;;;;;;5107112;28;20032;-64
2024/01/18 09:36:37;;;;;;;11.60;6.03;;;4.70;67.70;;;;;;5092232;28;20052;-63
2024/01/18 09:39:08;;;;;;;16.23;5.87;;;4.80;67.60;;;;;;5094017;28;20111;-65
2024/01/18 09:41:35;;;;;;;11.90;6.10;;;4.80;67.50;;;;;;5092256;28;20048;-66
2024/01/18 09:44:03;;;;;;;12.23;6.00;;;4.90;67.50;;;;;;5093906;28;20043;-66
2024/01/18 09:46:30;;;;;;;10.73;5.97;;;5.00;67.30;;;;;;5104846;28;20082;-65
2024/01/18 09:48:57;;;;;;;10.60;5.63;;;5.10;67.20;;;;;;5092243;28;20451;-65
2024/01/18 09:51:23;;;;;;;15.37;6.70;;;5.10;67.00;;;;;;5089340;28;20028;-65
2024/01/18 09:53:54;;;;;;;12.43;6.27;;;5.20;66.90;;;;;;5089168;28;20369;-66
2024/01/18 09:56:26;;;;;;;9.93;5.43;;;5.20;66.80;;;;;;5093188;28;20032;-68
2024/01/18 09:58:52;;;;;;;11.57;5.93;;;5.20;66.70;;;;;;5086142;28;20409;-67
2024/01/18 10:01:23;;;;;;;11.87;5.30;;;5.20;66.70;;;;;;5086917;28;20048;-68
2024/01/18 10:03:50;;;;;;;10.32;5.00;;;5.20;66.70;;;;;;5084935;28;20127;-67
2024/01/18 10:06:17;;;;;;;10.70;4.97;;;5.30;66.80;;;;;;5101482;28;20102;-68
2024/01/18 10:08:44;;;;;;;10.40;5.17;;;5.30;66.70;;;;;;5086514;28;20360;-68
2024/01/18 10:11:10;;;;;;;11.40;5.57;;;5.40;66.70;;;;;;5080549;28;20107;-69
2024/01/18 10:13:52;;;;;;;9.33;5.40;;;5.50;66.60;;;;;;5084925;28;20385;-69
2024/01/18 10:16:28;;;;;;;9.97;5.50;;;5.60;66.30;;;;;;5087062;28;20448;-69
2024/01/18 10:18:55;;;;;;;12.00;6.13;;;5.80;66.00;;;;;;5086819;28;20114;-68
2024/01/18 10:21:24;;;;;;;12.73;5.97;;;6.00;65.70;;;;;;5087349;28;20031;-68
2024/01/18 10:23:51;;;;;;;15.50;6.13;;;6.20;65.30;;;;;;5091045;28;20066;-69
2024/01/18 10:26:17;;;;;;;12.17;5.80;;;6.40;65.10;;;;;;5094269;28;20016;-70
2024/01/18 10:28:44;;;;;;;11.57;6.10;;;6.50;64.90;;;;;;5079293;28;20027;-70
2024/01/18 10:31:09;;;;;;;12.40;5.57;;;6.60;64.60;;;;;;5093102;28;20557;-70
2024/01/18 10:33:35;;;;;;;11.87;5.60;;;6.70;64.40;;;;;;5092418;28;20035;-70
2024/01/18 10:36:01;;;;;;;9.43;4.60;;;6.80;64.20;;;;;;5093118;28;20054;-70
2024/01/18 10:38:31;;;;;;;9.33;4.83;;;6.80;64.00;;;;;;5085730;28;20057;-71
2024/01/18 10:40:59;;;;;;;10.70;3.73;;;6.90;63.80;;;;;;5081703;28;20038;-71
2024/01/18 10:43:32;;;;;;;7.03;2.93;;;7.00;63.40;;;;;;5093116;28;20024;-71
2024/01/18 10:45:59;;;;;;;6.37;2.67;;;7.10;63.00;;;;;;5091534;28;20035;-70
2024/01/18 10:48:30;;;;;;;9.13;2.23;;;7.10;62.80;;;;;;5107398;28;20437;-70
2024/01/18 10:50:56;;;;;;;5.55;2.38;;;7.20;62.60;;;;;;5091878;28;20031;-70
2024/01/18 10:53:24;;;;;;;5.17;1.70;;;7.20;62.40;;;;;;5093135;28;20437;-70
2024/01/18 10:55:51;;;;;;;4.57;1.90;;;7.20;62.10;;;;;;5092418;28;20512;-70
2024/01/18 10:58:18;;;;;;;8.70;2.40;;;7.30;61.90;;;;;;5088726;28;20024;-70
2024/01/18 11:00:48;;;;;;;8.20;2.60;;;7.30;62.40;;;;;;5096395;28;20524;-70
2024/01/18 11:03:15;;;;;;;5.10;1.90;;;7.30;61.40;;;;;;5093649;28;20012;-70
2024/01/18 11:05:43;;;;;;;4.90;2.13;;;7.30;61.30;;;;;;5093879;28;20016;-70
2024/01/18 11:08:09;;;;;;;7.90;2.83;;;7.40;61.00;;;;;;5093175;28;20028;-70
2024/01/18 11:10:36;;;;;;;8.47;2.73;;;7.40;60.80;;;;;;5095414;28;20063;-70
2024/01/18 11:13:03;;;;;;;7.43;2.70;;;7.40;60.70;;;;;;5095752;28;20085;-70
2024/01/18 11:15:29;;;;;;;5.30;2.10;;;7.40;60.40;;;;;;5096230;28;20387;-70
2024/01/18 11:17:54;;;;;;;7.90;2.80;;;7.40;60.40;;;;;;5094945;28;20036;-70
2024/01/18 11:20:21;;;;;;;6.90;2.27;;;7.50;60.40;;;;;;5094823;28;20051;-70
2024/01/18 11:22:47;;;;;;;8.10;2.80;;;7.50;60.20;;;;;;5095275;28;20043;-70
2024/01/18 11:25:19;;;;;;;9.03;2.60;;;7.50;60.10;;;;;;5094353;28;20338;-70
2024/01/18 11:27:45;;;;;;;6.37;2.87;;;7.40;60.00;;;;;;5095135;28;20176;-70
2024/01/18 11:30:13;;;;;;;7.47;2.80;;;7.50;60.00;;;;;;5096273;28;20478;-70
2024/01/18 11:32:39;;;;;;;9.80;2.93;;;7.40;60.00;;;;;;5090002;28;20024;-70
2024/01/18 11:35:13;;;;;;;10.13;2.70;;;7.40;60.00;;;;;;5090411;28;20146;-71
2024/01/18 11:37:39;;;;;;;10.20;3.50;;;7.40;60.00;;;;;;5083392;28;20127;-70
2024/01/18 11:40:07;;;;;;;6.50;2.57;;;7.30;59.90;;;;;;5100926;27;20035;-70
2024/01/18 11:42:33;;;;;;;6.37;2.90;;;7.30;60.00;;;;;;5094495;28;20441;-71
2024/01/18 11:45:00;;;;;;;5.50;2.20;;;7.20;60.00;;;;;;5094775;28;20406;-70
2024/01/18 11:47:31;;;;;;;7.00;2.30;;;7.10;60.00;;;;;;5095668;28;20052;-70
2024/01/18 11:49:58;;;;;;;6.80;2.50;;;7.10;59.90;;;;;;5108411;28;20337;-72
2024/01/18 11:52:25;;;;;;;7.20;2.20;;;7.00;60.00;;;;;;5093749;28;20028;-72
2024/01/18 11:54:55;;;;;;;9.27;3.17;;;7.00;59.90;;;;;;5093845;28;20107;-72
2024/01/18 11:57:23;;;;;;;7.53;2.33;;;6.90;59.90;;;;;;5111537;28;20555;-72
2024/01/18 11:59:49;;;;;;;7.57;2.90;;;6.90;59.90;;;;;;5087546;28;20332;-72
2024/01/18 12:02:15;;;;;;;6.50;2.20;;;6.80;59.90;;;;;;5088172;28;20035;-71
2024/01/18 12:04:41;;;;;;;8.13;2.40;;;6.80;60.00;;;;;;5097051;28;20020;-71
2024/01/18 12:07:08;;;;;;;7.00;2.80;;;6.80;59.90;;;;;;5099817;28;20379;-72
2024/01/18 12:09:34;;;;;;;7.17;2.30;;;6.70;59.90;;;;;;5091522;28;20028;-72
2024/01/18 12:12:01;;;;;;;6.47;2.30;;;6.70;59.90;;;;;;5094607;28;20096;-72
2024/01/18 12:14:27;;;;;;;5.60;2.07;;;6.70;59.90;;;;;;5094950;28;20028;-72
2024/01/18 12:16:54;;;;;;;5.57;2.23;;;6.70;59.90;;;;;;5094854;28;20349;-69
2024/01/18 12:19:33;;;;;;;5.37;1.93;;;6.70;59.90;;;;;;5096044;28;20409;-72
2024/01/18 12:22:12;;;;;;;9.13;2.43;;;6.70;59.80;;;;;;5097005;28;20032;-71
2024/01/18 12:24:39;;;;;;;6.10;1.80;;;6.70;59.80;;;;;;5100898;28;20068;-72
2024/01/18 12:27:06;;;;;;;5.17;2.20;;;6.70;59.90;;;;;;5094521;28;20027;-73
2024/01/18 12:29:34;;;;;;;6.60;1.97;;;6.60;59.90;;;;;;5094153;28;20024;-72
2024/01/18 12:32:00;;;;;;;8.90;2.47;;;6.60;60.00;;;;;;5094051;28;20459;-72
2024/01/18 12:34:28;;;;;;;7.00;2.50;;;6.50;60.10;;;;;;5094518;28;20063;-72
2024/01/18 12:36:54;;;;;;;6.87;1.90;;;6.50;60.20;;;;;;5093261;28;20036;-73
2024/01/18 12:39:20;;;;;;;6.83;2.10;;;6.50;60.30;;;;;;5094819;28;20028;-70
2024/01/18 12:41:49;;;;;;;6.47;2.20;;;6.50;60.50;;;;;;5094228;28;20513;-72